sensor_id;sensor_type;location;lat;lon;timestamp;P1;durP1;ratioP1;P2;durP2;ratioP2
52674;SDS011;38569;52.722;6.440;2023-05-09T00:00:16;227.50;;;79.07;;
52674;SDS011;38569;52.722;6.440;2023-05-09T00:02:42;260.40;;;84.63;;
52674;SDS011;38569;52.722;6.440;2023-05-09T00:05:10;203.73;;;78.95;;
52674;SDS011;38569;52.722;6.440;2023-05-09T00:07:36;201.38;;;72.28;;
52674;SDS011;38569;52.722;6.440;2023-05-09T00:10:02;177.07;;;69.65;;
52674;SDS011;38569;52.722;6.440;2023-05-09T00:12:28;170.55;;;67.82;;
52674;SDS011;38569;52.722;6.440;2023-05-09T00:14:54;176.82;;;67.97;;
52674;SDS011;38569;52.722;6.440;2023-05-09T00:17:21;215.80;;;74.82;;
52674;SDS011;38569;52.722;6.440;2023-05-09T00:19:48;184.88;;;66.57;;
52674;SDS011;38569;52.722;6.440;2023-05-09T00:22:15;164.80;;;65.70;;
52674;SDS011;38569;52.722;6.440;2023-05-09T00:24:41;163.20;;;63.88;;
52674;SDS011;38569;52.722;6.440;2023-05-09T00:27:07;158.95;;;61.90;;
52674;SDS011;38569;52.722;6.440;2023-05-09T00:29:34;162.32;;;65.80;;
52674;SDS011;38569;52.722;6.440;2023-05-09T00:32:00;184.88;;;68.20;;
52674;SDS011;38569;52.722;6.440;2023-05-09T00:34:25;148.63;;;65.10;;
52674;SDS011;38569;52.722;6.440;2023-05-09T00:36:51;150.07;;;62.92;;
52674;SDS011;38569;52.722;6.440;2023-05-09T00:39:17;213.45;;;68.82;;
52674;SDS011;38569;52.722;6.440;2023-05-09T00:41:42;224.95;;;74.88;;
52674;SDS011;38569;52.722;6.440;2023-05-09T00:44:08;182.85;;;69.53;;
52674;SDS011;38569;52.722;6.440;2023-05-09T00:46:34;166.35;;;63.85;;
52674;SDS011;38569;52.722;6.440;2023-05-09T00:49:00;167.75;;;66.00;;
52674;SDS011;38569;52.722;6.440;2023-05-09T00:51:26;152.50;;;61.97;;
52674;SDS011;38569;52.722;6.440;2023-05-09T00:53:53;205.60;;;71.68;;
52674;SDS011;38569;52.722;6.440;2023-05-09T00:56:18;147.32;;;62.40;;
52674;SDS011;38569;52.722;6.440;2023-05-09T00:58:45;145.57;;;61.22;;
52674;SDS011;38569;52.722;6.440;2023-05-09T01:01:12;134.02;;;58.55;;
52674;SDS011;38569;52.722;6.440;2023-05-09T01:03:38;154.57;;;63.03;;
52674;SDS011;38569;52.722;6.440;2023-05-09T01:11:44;156.05;;;61.50;;
52674;SDS011;38569;52.722;6.440;2023-05-09T01:14:14;178.13;;;64.75;;
52674;SDS011;38569;52.722;6.440;2023-05-09T01:17:14;152.52;;;61.50;;
52674;SDS011;38569;52.722;6.440;2023-05-09T01:19:51;181.45;;;63.40;;
52674;SDS011;38569;52.722;6.440;2023-05-09T01:22:29;148.73;;;61.25;;
52674;SDS011;38569;52.722;6.440;2023-05-09T01:25:05;158.90;;;60.20;;
52674;SDS011;38569;52.722;6.440;2023-05-09T01:27:41;289.80;;;75.05;;
52674;SDS011;38569;52.722;6.440;2023-05-09T01:30:13;185.65;;;65.82;;
52674;SDS011;38569;52.722;6.440;2023-05-09T01:32:41;295.00;;;74.93;;
52674;SDS011;38569;52.722;6.440;2023-05-09T01:35:12;194.30;;;64.20;;
52674;SDS011;38569;52.722;6.440;2023-05-09T01:37:38;321.92;;;80.05;;
52674;SDS011;38569;52.722;6.440;2023-05-09T01:40:09;275.20;;;77.32;;
52674;SDS011;38569;52.722;6.440;2023-05-09T01:42:40;368.65;;;85.05;;
52674;SDS011;38569;52.722;6.440;2023-05-09T01:47:38;203.05;;;65.03;;
52674;SDS011;38569;52.722;6.440;2023-05-09T01:50:05;266.85;;;73.22;;
52674;SDS011;38569;52.722;6.440;2023-05-09T01:52:33;247.38;;;69.15;;
52674;SDS011;38569;52.722;6.440;2023-05-09T01:55:00;305.70;;;76.00;;
52674;SDS011;38569;52.722;6.440;2023-05-09T01:57:28;248.07;;;72.63;;
52674;SDS011;38569;52.722;6.440;2023-05-09T01:59:55;244.52;;;68.90;;
52674;SDS011;38569;52.722;6.440;2023-05-09T02:02:23;333.27;;;74.28;;
52674;SDS011;38569;52.722;6.440;2023-05-09T02:04:55;355.10;;;78.30;;
52674;SDS011;38569;52.722;6.440;2023-05-09T02:07:22;292.63;;;73.65;;
52674;SDS011;38569;52.722;6.440;2023-05-09T02:09:49;334.77;;;80.53;;
52674;SDS011;38569;52.722;6.440;2023-05-09T02:12:18;292.63;;;78.07;;
52674;SDS011;38569;52.722;6.440;2023-05-09T02:14:44;376.90;;;81.20;;
52674;SDS011;38569;52.722;6.440;2023-05-09T02:17:09;296.35;;;74.28;;
52674;SDS011;38569;52.722;6.440;2023-05-09T02:19:41;318.02;;;77.05;;
52674;SDS011;38569;52.722;6.440;2023-05-09T02:22:07;280.80;;;72.70;;
52674;SDS011;38569;52.722;6.440;2023-05-09T02:24:33;223.32;;;67.97;;
52674;SDS011;38569;52.722;6.440;2023-05-09T02:27:01;175.88;;;60.88;;
52674;SDS011;38569;52.722;6.440;2023-05-09T02:29:36;224.20;;;70.90;;
52674;SDS011;38569;52.722;6.440;2023-05-09T02:32:13;305.47;;;72.57;;
52674;SDS011;38569;52.722;6.440;2023-05-09T02:34:40;262.75;;;71.15;;
52674;SDS011;38569;52.722;6.440;2023-05-09T02:37:08;347.48;;;77.65;;
52674;SDS011;38569;52.722;6.440;2023-05-09T02:39:34;319.77;;;74.63;;
52674;SDS011;38569;52.722;6.440;2023-05-09T02:42:04;253.07;;;66.35;;
52674;SDS011;38569;52.722;6.440;2023-05-09T02:44:31;280.45;;;69.72;;
52674;SDS011;38569;52.722;6.440;2023-05-09T02:46:57;257.05;;;64.78;;
52674;SDS011;38569;52.722;6.440;2023-05-09T02:49:22;148.13;;;56.95;;
52674;SDS011;38569;52.722;6.440;2023-05-09T02:51:48;195.13;;;63.90;;
52674;SDS011;38569;52.722;6.440;2023-05-09T02:54:14;187.38;;;61.67;;
52674;SDS011;38569;52.722;6.440;2023-05-09T02:56:39;174.32;;;61.92;;
52674;SDS011;38569;52.722;6.440;2023-05-09T02:59:05;381.02;;;88.55;;
52674;SDS011;38569;52.722;6.440;2023-05-09T03:01:31;235.30;;;69.15;;
52674;SDS011;38569;52.722;6.440;2023-05-09T03:03:57;318.45;;;76.18;;
52674;SDS011;38569;52.722;6.440;2023-05-09T03:06:22;231.18;;;67.53;;
52674;SDS011;38569;52.722;6.440;2023-05-09T03:08:48;203.77;;;64.10;;
52674;SDS011;38569;52.722;6.440;2023-05-09T03:11:14;176.57;;;61.90;;
52674;SDS011;38569;52.722;6.440;2023-05-09T03:13:39;224.02;;;68.13;;
52674;SDS011;38569;52.722;6.440;2023-05-09T03:16:05;248.35;;;71.68;;
52674;SDS011;38569;52.722;6.440;2023-05-09T03:18:31;198.10;;;64.95;;
52674;SDS011;38569;52.722;6.440;2023-05-09T03:20:57;189.80;;;66.35;;
52674;SDS011;38569;52.722;6.440;2023-05-09T03:23:22;250.07;;;72.47;;
52674;SDS011;38569;52.722;6.440;2023-05-09T03:25:48;180.10;;;61.92;;
52674;SDS011;38569;52.722;6.440;2023-05-09T03:28:14;174.23;;;66.60;;
52674;SDS011;38569;52.722;6.440;2023-05-09T03:30:39;190.70;;;67.72;;
52674;SDS011;38569;52.722;6.440;2023-05-09T03:33:06;248.80;;;74.90;;
52674;SDS011;38569;52.722;6.440;2023-05-09T03:35:31;269.33;;;88.15;;
52674;SDS011;38569;52.722;6.440;2023-05-09T03:37:57;298.63;;;89.40;;
52674;SDS011;38569;52.722;6.440;2023-05-09T03:40:23;321.83;;;89.30;;
52674;SDS011;38569;52.722;6.440;2023-05-09T03:42:48;339.25;;;93.10;;
52674;SDS011;38569;52.722;6.440;2023-05-09T03:45:14;381.13;;;98.18;;
52674;SDS011;38569;52.722;6.440;2023-05-09T03:47:40;425.02;;;104.00;;
52674;SDS011;38569;52.722;6.440;2023-05-09T03:50:06;475.88;;;109.95;;
52674;SDS011;38569;52.722;6.440;2023-05-09T03:52:32;522.95;;;119.93;;
52674;SDS011;38569;52.722;6.440;2023-05-09T03:54:57;521.35;;;117.50;;
52674;SDS011;38569;52.722;6.440;2023-05-09T03:57:23;343.42;;;91.70;;
52674;SDS011;38569;52.722;6.440;2023-05-09T03:59:49;589.17;;;123.90;;
52674;SDS011;38569;52.722;6.440;2023-05-09T04:02:15;497.85;;;114.03;;
52674;SDS011;38569;52.722;6.440;2023-05-09T04:04:41;355.05;;;93.68;;
52674;SDS011;38569;52.722;6.440;2023-05-09T04:07:06;434.83;;;106.15;;
52674;SDS011;38569;52.722;6.440;2023-05-09T04:09:32;391.33;;;94.13;;
52674;SDS011;38569;52.722;6.440;2023-05-09T04:11:58;398.52;;;95.28;;
52674;SDS011;38569;52.722;6.440;2023-05-09T04:14:24;471.77;;;106.43;;
52674;SDS011;38569;52.722;6.440;2023-05-09T04:16:50;726.35;;;140.82;;
52674;SDS011;38569;52.722;6.440;2023-05-09T04:19:15;718.40;;;138.57;;
52674;SDS011;38569;52.722;6.440;2023-05-09T04:21:41;459.77;;;108.50;;
52674;SDS011;38569;52.722;6.440;2023-05-09T04:24:07;640.17;;;124.00;;
52674;SDS011;38569;52.722;6.440;2023-05-09T04:26:32;447.00;;;106.20;;
52674;SDS011;38569;52.722;6.440;2023-05-09T04:29:02;336.67;;;92.32;;
52674;SDS011;38569;52.722;6.440;2023-05-09T04:31:28;509.27;;;117.53;;
52674;SDS011;38569;52.722;6.440;2023-05-09T04:33:54;455.13;;;111.22;;
52674;SDS011;38569;52.722;6.440;2023-05-09T04:36:22;294.42;;;93.07;;
52674;SDS011;38569;52.722;6.440;2023-05-09T04:38:48;365.10;;;102.05;;
52674;SDS011;38569;52.722;6.440;2023-05-09T04:41:14;250.88;;;87.55;;
52674;SDS011;38569;52.722;6.440;2023-05-09T04:43:40;375.52;;;104.55;;
52674;SDS011;38569;52.722;6.440;2023-05-09T04:46:07;349.50;;;99.57;;
52674;SDS011;38569;52.722;6.440;2023-05-09T04:48:34;333.48;;;97.05;;
52674;SDS011;38569;52.722;6.440;2023-05-09T04:51:01;227.50;;;85.68;;
52674;SDS011;38569;52.722;6.440;2023-05-09T04:53:26;313.42;;;99.70;;
52674;SDS011;38569;52.722;6.440;2023-05-09T04:55:52;341.05;;;97.15;;
52674;SDS011;38569;52.722;6.440;2023-05-09T04:58:18;314.73;;;98.15;;
52674;SDS011;38569;52.722;6.440;2023-05-09T05:00:44;289.90;;;96.13;;
52674;SDS011;38569;52.722;6.440;2023-05-09T05:03:10;389.15;;;110.72;;
52674;SDS011;38569;52.722;6.440;2023-05-09T05:05:36;264.15;;;94.80;;
52674;SDS011;38569;52.722;6.440;2023-05-09T05:08:04;367.48;;;109.03;;
52674;SDS011;38569;52.722;6.440;2023-05-09T05:10:29;277.63;;;92.72;;
52674;SDS011;38569;52.722;6.440;2023-05-09T05:12:55;228.45;;;88.22;;
52674;SDS011;38569;52.722;6.440;2023-05-09T05:15:21;307.27;;;98.75;;
52674;SDS011;38569;52.722;6.440;2023-05-09T05:17:47;390.20;;;114.20;;
52674;SDS011;38569;52.722;6.440;2023-05-09T05:20:12;365.33;;;106.20;;
52674;SDS011;38569;52.722;6.440;2023-05-09T05:22:38;386.05;;;109.30;;
52674;SDS011;38569;52.722;6.440;2023-05-09T05:25:04;310.00;;;101.85;;
52674;SDS011;38569;52.722;6.440;2023-05-09T05:27:30;360.92;;;110.43;;
52674;SDS011;38569;52.722;6.440;2023-05-09T05:29:56;292.17;;;100.25;;
52674;SDS011;38569;52.722;6.440;2023-05-09T05:32:21;236.90;;;90.25;;
52674;SDS011;38569;52.722;6.440;2023-05-09T05:34:47;299.00;;;101.40;;
52674;SDS011;38569;52.722;6.440;2023-05-09T05:37:13;262.38;;;96.57;;
52674;SDS011;38569;52.722;6.440;2023-05-09T05:39:39;338.30;;;110.70;;
52674;SDS011;38569;52.722;6.440;2023-05-09T05:42:04;305.95;;;104.00;;
52674;SDS011;38569;52.722;6.440;2023-05-09T05:44:30;312.77;;;108.03;;
52674;SDS011;38569;52.722;6.440;2023-05-09T05:46:56;256.40;;;97.63;;
52674;SDS011;38569;52.722;6.440;2023-05-09T05:49:21;325.58;;;104.53;;
52674;SDS011;38569;52.722;6.440;2023-05-09T05:51:49;247.23;;;95.63;;
52674;SDS011;38569;52.722;6.440;2023-05-09T05:54:15;288.55;;;99.72;;
52674;SDS011;38569;52.722;6.440;2023-05-09T05:56:41;335.17;;;102.93;;
52674;SDS011;38569;52.722;6.440;2023-05-09T05:59:07;276.00;;;96.07;;
52674;SDS011;38569;52.722;6.440;2023-05-09T06:01:32;223.52;;;88.30;;
52674;SDS011;38569;52.722;6.440;2023-05-09T06:03:58;226.23;;;93.25;;
52674;SDS011;38569;52.722;6.440;2023-05-09T06:06:25;210.70;;;86.45;;
52674;SDS011;38569;52.722;6.440;2023-05-09T06:08:51;230.77;;;90.75;;
52674;SDS011;38569;52.722;6.440;2023-05-09T06:11:17;194.88;;;80.10;;
52674;SDS011;38569;52.722;6.440;2023-05-09T06:13:43;177.65;;;78.10;;
52674;SDS011;38569;52.722;6.440;2023-05-09T06:16:09;145.10;;;71.50;;
52674;SDS011;38569;52.722;6.440;2023-05-09T06:18:35;136.90;;;67.88;;
52674;SDS011;38569;52.722;6.440;2023-05-09T06:21:07;137.70;;;72.57;;
52674;SDS011;38569;52.722;6.440;2023-05-09T06:23:33;124.88;;;66.95;;
52674;SDS011;38569;52.722;6.440;2023-05-09T06:26:00;167.68;;;75.43;;
52674;SDS011;38569;52.722;6.440;2023-05-09T06:28:27;152.18;;;68.95;;
52674;SDS011;38569;52.722;6.440;2023-05-09T06:30:52;152.60;;;71.95;;
52674;SDS011;38569;52.722;6.440;2023-05-09T06:33:18;154.50;;;71.82;;
52674;SDS011;38569;52.722;6.440;2023-05-09T06:35:44;127.15;;;66.13;;
52674;SDS011;38569;52.722;6.440;2023-05-09T06:38:09;138.38;;;68.63;;
52674;SDS011;38569;52.722;6.440;2023-05-09T06:40:35;159.63;;;71.63;;
52674;SDS011;38569;52.722;6.440;2023-05-09T06:43:01;140.40;;;68.15;;
52674;SDS011;38569;52.722;6.440;2023-05-09T06:45:26;140.48;;;66.00;;
52674;SDS011;38569;52.722;6.440;2023-05-09T06:47:52;154.07;;;70.78;;
52674;SDS011;38569;52.722;6.440;2023-05-09T06:50:18;117.80;;;62.40;;
52674;SDS011;38569;52.722;6.440;2023-05-09T06:52:44;130.45;;;64.57;;
52674;SDS011;38569;52.722;6.440;2023-05-09T06:55:09;105.32;;;58.53;;
52674;SDS011;38569;52.722;6.440;2023-05-09T06:57:35;121.07;;;63.60;;
52674;SDS011;38569;52.722;6.440;2023-05-09T07:00:02;117.53;;;62.83;;
52674;SDS011;38569;52.722;6.440;2023-05-09T07:02:29;124.55;;;66.22;;
52674;SDS011;38569;52.722;6.440;2023-05-09T07:04:55;117.45;;;64.05;;
52674;SDS011;38569;52.722;6.440;2023-05-09T07:07:20;113.43;;;61.90;;
52674;SDS011;38569;52.722;6.440;2023-05-09T07:09:46;91.60;;;54.03;;
52674;SDS011;38569;52.722;6.440;2023-05-09T07:12:12;91.07;;;53.00;;
52674;SDS011;38569;52.722;6.440;2023-05-09T07:14:37;99.13;;;55.72;;
52674;SDS011;38569;52.722;6.440;2023-05-09T07:17:03;89.95;;;54.20;;
52674;SDS011;38569;52.722;6.440;2023-05-09T07:19:29;91.32;;;52.45;;
52674;SDS011;38569;52.722;6.440;2023-05-09T07:21:54;89.57;;;53.65;;
52674;SDS011;38569;52.722;6.440;2023-05-09T07:24:20;91.35;;;53.03;;
52674;SDS011;38569;52.722;6.440;2023-05-09T07:26:46;81.10;;;51.58;;
52674;SDS011;38569;52.722;6.440;2023-05-09T07:29:11;78.22;;;50.90;;
52674;SDS011;38569;52.722;6.440;2023-05-09T07:31:37;84.30;;;50.38;;
52674;SDS011;38569;52.722;6.440;2023-05-09T07:34:03;81.80;;;49.65;;
52674;SDS011;38569;52.722;6.440;2023-05-09T07:36:28;81.97;;;51.83;;
52674;SDS011;38569;52.722;6.440;2023-05-09T07:38:54;88.35;;;49.97;;
52674;SDS011;38569;52.722;6.440;2023-05-09T07:41:20;80.07;;;49.90;;
52674;SDS011;38569;52.722;6.440;2023-05-09T07:43:46;79.38;;;49.55;;
52674;SDS011;38569;52.722;6.440;2023-05-09T07:46:12;74.90;;;48.50;;
52674;SDS011;38569;52.722;6.440;2023-05-09T07:48:37;82.35;;;50.50;;
52674;SDS011;38569;52.722;6.440;2023-05-09T07:51:03;79.07;;;49.75;;
52674;SDS011;38569;52.722;6.440;2023-05-09T07:53:29;79.85;;;48.17;;
52674;SDS011;38569;52.722;6.440;2023-05-09T07:55:55;76.90;;;49.78;;
52674;SDS011;38569;52.722;6.440;2023-05-09T07:58:22;73.22;;;48.22;;
52674;SDS011;38569;52.722;6.440;2023-05-09T08:00:48;72.55;;;48.10;;
52674;SDS011;38569;52.722;6.440;2023-05-09T08:03:13;69.53;;;45.53;;
52674;SDS011;38569;52.722;6.440;2023-05-09T08:05:39;70.07;;;46.28;;
52674;SDS011;38569;52.722;6.440;2023-05-09T08:08:05;68.72;;;44.72;;
52674;SDS011;38569;52.722;6.440;2023-05-09T08:10:31;73.13;;;45.45;;
52674;SDS011;38569;52.722;6.440;2023-05-09T08:12:57;67.10;;;45.45;;
52674;SDS011;38569;52.722;6.440;2023-05-09T08:15:23;63.05;;;43.00;;
52674;SDS011;38569;52.722;6.440;2023-05-09T08:17:49;65.57;;;42.15;;
52674;SDS011;38569;52.722;6.440;2023-05-09T08:20:14;60.45;;;40.08;;
52674;SDS011;38569;52.722;6.440;2023-05-09T08:22:41;57.10;;;36.85;;
52674;SDS011;38569;52.722;6.440;2023-05-09T08:25:07;56.30;;;38.50;;
52674;SDS011;38569;52.722;6.440;2023-05-09T08:27:33;61.25;;;39.72;;
52674;SDS011;38569;52.722;6.440;2023-05-09T08:29:58;54.80;;;36.80;;
52674;SDS011;38569;52.722;6.440;2023-05-09T08:32:24;49.60;;;33.42;;
52674;SDS011;38569;52.722;6.440;2023-05-09T08:34:50;49.83;;;36.35;;
52674;SDS011;38569;52.722;6.440;2023-05-09T08:37:16;47.03;;;32.42;;
52674;SDS011;38569;52.722;6.440;2023-05-09T08:39:42;45.95;;;33.17;;
52674;SDS011;38569;52.722;6.440;2023-05-09T08:42:08;45.28;;;32.58;;
52674;SDS011;38569;52.722;6.440;2023-05-09T08:44:34;50.00;;;35.05;;
52674;SDS011;38569;52.722;6.440;2023-05-09T08:47:00;40.00;;;29.45;;
52674;SDS011;38569;52.722;6.440;2023-05-09T08:49:27;41.80;;;31.08;;
52674;SDS011;38569;52.722;6.440;2023-05-09T08:51:54;45.67;;;32.08;;
52674;SDS011;38569;52.722;6.440;2023-05-09T08:54:20;46.10;;;31.45;;
52674;SDS011;38569;52.722;6.440;2023-05-09T08:56:47;41.85;;;30.00;;
52674;SDS011;38569;52.722;6.440;2023-05-09T08:59:13;40.22;;;29.83;;
52674;SDS011;38569;52.722;6.440;2023-05-09T09:01:41;40.72;;;29.17;;
52674;SDS011;38569;52.722;6.440;2023-05-09T09:04:07;37.78;;;27.13;;
52674;SDS011;38569;52.722;6.440;2023-05-09T09:06:35;33.38;;;26.30;;
52674;SDS011;38569;52.722;6.440;2023-05-09T09:09:02;35.60;;;25.75;;
52674;SDS011;38569;52.722;6.440;2023-05-09T09:11:31;31.23;;;23.85;;
52674;SDS011;38569;52.722;6.440;2023-05-09T09:13:59;31.58;;;22.88;;
52674;SDS011;38569;52.722;6.440;2023-05-09T09:16:29;29.08;;;21.95;;
52674;SDS011;38569;52.722;6.440;2023-05-09T09:18:56;30.50;;;22.95;;
52674;SDS011;38569;52.722;6.440;2023-05-09T09:21:24;28.98;;;21.23;;
52674;SDS011;38569;52.722;6.440;2023-05-09T09:23:50;28.55;;;21.60;;
52674;SDS011;38569;52.722;6.440;2023-05-09T09:26:16;30.75;;;22.50;;
52674;SDS011;38569;52.722;6.440;2023-05-09T09:28:42;27.85;;;21.80;;
52674;SDS011;38569;52.722;6.440;2023-05-09T09:31:30;28.48;;;21.38;;
52674;SDS011;38569;52.722;6.440;2023-05-09T09:34:01;29.88;;;21.83;;
52674;SDS011;38569;52.722;6.440;2023-05-09T09:36:31;26.27;;;21.17;;
52674;SDS011;38569;52.722;6.440;2023-05-09T09:39:02;29.20;;;20.77;;
52674;SDS011;38569;52.722;6.440;2023-05-09T09:41:35;27.88;;;21.48;;
52674;SDS011;38569;52.722;6.440;2023-05-09T09:44:08;26.35;;;22.08;;
52674;SDS011;38569;52.722;6.440;2023-05-09T09:46:42;28.02;;;20.75;;
52674;SDS011;38569;52.722;6.440;2023-05-09T09:49:16;28.02;;;20.70;;
52674;SDS011;38569;52.722;6.440;2023-05-09T09:51:53;25.90;;;21.10;;
52674;SDS011;38569;52.722;6.440;2023-05-09T09:54:20;25.02;;;21.15;;
52674;SDS011;38569;52.722;6.440;2023-05-09T09:56:50;28.83;;;21.75;;
52674;SDS011;38569;52.722;6.440;2023-05-09T09:59:22;26.17;;;21.50;;
52674;SDS011;38569;52.722;6.440;2023-05-09T10:01:59;26.15;;;21.15;;
52674;SDS011;38569;52.722;6.440;2023-05-09T10:04:27;22.58;;;19.65;;
52674;SDS011;38569;52.722;6.440;2023-05-09T10:06:58;26.77;;;21.60;;
52674;SDS011;38569;52.722;6.440;2023-05-09T10:09:27;27.75;;;21.52;;
52674;SDS011;38569;52.722;6.440;2023-05-09T10:11:54;22.38;;;19.92;;
52674;SDS011;38569;52.722;6.440;2023-05-09T10:14:24;26.15;;;20.45;;
52674;SDS011;38569;52.722;6.440;2023-05-09T10:16:51;23.10;;;19.25;;
52674;SDS011;38569;52.722;6.440;2023-05-09T10:19:20;22.20;;;19.35;;
52674;SDS011;38569;52.722;6.440;2023-05-09T10:21:56;24.25;;;19.67;;
52674;SDS011;38569;52.722;6.440;2023-05-09T10:24:38;24.35;;;18.65;;
52674;SDS011;38569;52.722;6.440;2023-05-09T10:27:10;21.95;;;18.80;;
52674;SDS011;38569;52.722;6.440;2023-05-09T10:29:43;19.90;;;17.33;;
52674;SDS011;38569;52.722;6.440;2023-05-09T10:32:17;17.35;;;15.48;;
52674;SDS011;38569;52.722;6.440;2023-05-09T10:34:52;16.85;;;13.27;;
52674;SDS011;38569;52.722;6.440;2023-05-09T10:37:21;16.52;;;12.43;;
52674;SDS011;38569;52.722;6.440;2023-05-09T10:39:47;15.80;;;11.00;;
52674;SDS011;38569;52.722;6.440;2023-05-09T10:42:18;20.30;;;11.38;;
52674;SDS011;38569;52.722;6.440;2023-05-09T10:44:45;13.02;;;10.70;;
52674;SDS011;38569;52.722;6.440;2023-05-09T10:47:11;18.27;;;10.75;;
52674;SDS011;38569;52.722;6.440;2023-05-09T10:49:38;14.65;;;11.05;;
52674;SDS011;38569;52.722;6.440;2023-05-09T10:52:05;12.70;;;10.80;;
52674;SDS011;38569;52.722;6.440;2023-05-09T10:54:30;13.25;;;10.63;;
52674;SDS011;38569;52.722;6.440;2023-05-09T10:56:58;14.52;;;11.10;;
52674;SDS011;38569;52.722;6.440;2023-05-09T10:59:34;12.20;;;10.73;;
52674;SDS011;38569;52.722;6.440;2023-05-09T11:02:13;15.90;;;10.48;;
52674;SDS011;38569;52.722;6.440;2023-05-09T11:04:43;15.75;;;12.40;;
52674;SDS011;38569;52.722;6.440;2023-05-09T11:07:25;12.45;;;10.90;;
52674;SDS011;38569;52.722;6.440;2023-05-09T11:09:52;17.48;;;11.23;;
52674;SDS011;38569;52.722;6.440;2023-05-09T11:12:57;13.68;;;11.65;;
52674;SDS011;38569;52.722;6.440;2023-05-09T11:15:24;12.60;;;10.52;;
52674;SDS011;38569;52.722;6.440;2023-05-09T11:18:09;14.65;;;11.10;;
52674;SDS011;38569;52.722;6.440;2023-05-09T11:20:35;13.18;;;11.30;;
52674;SDS011;38569;52.722;6.440;2023-05-09T11:23:07;14.70;;;11.18;;
52674;SDS011;38569;52.722;6.440;2023-05-09T11:25:35;11.38;;;10.15;;
52674;SDS011;38569;52.722;6.440;2023-05-09T11:28:04;15.48;;;10.18;;
52674;SDS011;38569;52.722;6.440;2023-05-09T11:30:42;19.15;;;12.15;;
52674;SDS011;38569;52.722;6.440;2023-05-09T11:33:21;13.30;;;10.30;;
52674;SDS011;38569;52.722;6.440;2023-05-09T11:36:13;12.63;;;10.70;;
52674;SDS011;38569;52.722;6.440;2023-05-09T11:39:06;12.77;;;10.73;;
52674;SDS011;38569;52.722;6.440;2023-05-09T11:41:37;15.98;;;10.25;;
52674;SDS011;38569;52.722;6.440;2023-05-09T11:44:11;15.32;;;10.38;;
52674;SDS011;38569;52.722;6.440;2023-05-09T11:46:44;11.60;;;10.38;;
52674;SDS011;38569;52.722;6.440;2023-05-09T11:49:12;12.50;;;9.65;;
52674;SDS011;38569;52.722;6.440;2023-05-09T11:51:38;15.77;;;11.23;;
52674;SDS011;38569;52.722;6.440;2023-05-09T11:54:06;15.40;;;12.13;;
52674;SDS011;38569;52.722;6.440;2023-05-09T11:56:33;15.50;;;11.07;;
52674;SDS011;38569;52.722;6.440;2023-05-09T11:59:00;15.32;;;12.05;;
52674;SDS011;38569;52.722;6.440;2023-05-09T12:01:27;17.02;;;11.98;;
52674;SDS011;38569;52.722;6.440;2023-05-09T12:03:54;14.70;;;11.98;;
52674;SDS011;38569;52.722;6.440;2023-05-09T12:06:20;15.88;;;12.63;;
52674;SDS011;38569;52.722;6.440;2023-05-09T12:08:46;17.80;;;13.65;;
52674;SDS011;38569;52.722;6.440;2023-05-09T12:11:12;16.58;;;14.63;;
52674;SDS011;38569;52.722;6.440;2023-05-09T12:13:48;18.45;;;14.45;;
52674;SDS011;38569;52.722;6.440;2023-05-09T12:16:16;17.58;;;15.07;;
52674;SDS011;38569;52.722;6.440;2023-05-09T12:18:43;22.17;;;17.38;;
52674;SDS011;38569;52.722;6.440;2023-05-09T12:21:19;28.98;;;18.58;;
52674;SDS011;38569;52.722;6.440;2023-05-09T12:23:46;23.60;;;17.67;;
52674;SDS011;38569;52.722;6.440;2023-05-09T12:26:11;20.05;;;17.92;;
52674;SDS011;38569;52.722;6.440;2023-05-09T12:28:37;22.08;;;18.20;;
52674;SDS011;38569;52.722;6.440;2023-05-09T12:31:04;20.10;;;17.95;;
52674;SDS011;38569;52.722;6.440;2023-05-09T12:33:31;19.38;;;17.10;;
52674;SDS011;38569;52.722;6.440;2023-05-09T12:36:15;24.40;;;19.48;;
52674;SDS011;38569;52.722;6.440;2023-05-09T12:38:50;19.38;;;17.38;;
52674;SDS011;38569;52.722;6.440;2023-05-09T12:41:19;20.55;;;17.52;;
52674;SDS011;38569;52.722;6.440;2023-05-09T12:43:46;20.73;;;18.40;;
52674;SDS011;38569;52.722;6.440;2023-05-09T12:46:16;19.08;;;17.08;;
52674;SDS011;38569;52.722;6.440;2023-05-09T12:48:44;21.27;;;18.98;;
52674;SDS011;38569;52.722;6.440;2023-05-09T12:51:11;23.83;;;17.95;;
52674;SDS011;38569;52.722;6.440;2023-05-09T12:53:41;20.23;;;17.92;;
52674;SDS011;38569;52.722;6.440;2023-05-09T12:56:17;21.77;;;18.85;;
52674;SDS011;38569;52.722;6.440;2023-05-09T12:58:47;21.35;;;18.15;;
52674;SDS011;38569;52.722;6.440;2023-05-09T13:01:15;21.92;;;19.60;;
52674;SDS011;38569;52.722;6.440;2023-05-09T13:03:41;21.70;;;19.33;;
52674;SDS011;38569;52.722;6.440;2023-05-09T13:06:11;25.27;;;19.25;;
52674;SDS011;38569;52.722;6.440;2023-05-09T13:08:38;21.63;;;18.42;;
52674;SDS011;38569;52.722;6.440;2023-05-09T13:11:04;22.13;;;19.83;;
52674;SDS011;38569;52.722;6.440;2023-05-09T13:13:30;23.77;;;21.27;;
52674;SDS011;38569;52.722;6.440;2023-05-09T13:15:55;24.63;;;20.63;;
52674;SDS011;38569;52.722;6.440;2023-05-09T13:18:21;22.73;;;20.42;;
52674;SDS011;38569;52.722;6.440;2023-05-09T13:20:49;22.67;;;20.30;;
52674;SDS011;38569;52.722;6.440;2023-05-09T13:23:15;23.73;;;19.38;;
52674;SDS011;38569;52.722;6.440;2023-05-09T13:25:41;25.67;;;21.02;;
52674;SDS011;38569;52.722;6.440;2023-05-09T13:28:07;23.08;;;19.83;;
52674;SDS011;38569;52.722;6.440;2023-05-09T13:30:33;22.23;;;19.90;;
52674;SDS011;38569;52.722;6.440;2023-05-09T13:32:58;21.75;;;19.27;;
52674;SDS011;38569;52.722;6.440;2023-05-09T13:35:24;21.48;;;19.23;;
52674;SDS011;38569;52.722;6.440;2023-05-09T13:37:50;21.13;;;18.80;;
52674;SDS011;38569;52.722;6.440;2023-05-09T13:40:16;19.92;;;17.83;;
52674;SDS011;38569;52.722;6.440;2023-05-09T13:42:41;17.55;;;15.73;;
52674;SDS011;38569;52.722;6.440;2023-05-09T13:45:07;19.60;;;16.48;;
52674;SDS011;38569;52.722;6.440;2023-05-09T13:47:33;16.52;;;14.82;;
52674;SDS011;38569;52.722;6.440;2023-05-09T13:50:00;18.10;;;15.43;;
52674;SDS011;38569;52.722;6.440;2023-05-09T13:52:27;15.40;;;13.35;;
52674;SDS011;38569;52.722;6.440;2023-05-09T13:54:52;15.95;;;14.25;;
52674;SDS011;38569;52.722;6.440;2023-05-09T13:57:18;15.07;;;13.48;;
52674;SDS011;38569;52.722;6.440;2023-05-09T13:59:44;14.68;;;12.23;;
52674;SDS011;38569;52.722;6.440;2023-05-09T14:02:09;16.65;;;13.43;;
52674;SDS011;38569;52.722;6.440;2023-05-09T14:04:35;13.05;;;11.75;;
52674;SDS011;38569;52.722;6.440;2023-05-09T14:07:01;14.73;;;12.02;;
52674;SDS011;38569;52.722;6.440;2023-05-09T14:09:27;12.55;;;11.25;;
52674;SDS011;38569;52.722;6.440;2023-05-09T14:11:54;13.15;;;11.82;;
52674;SDS011;38569;52.722;6.440;2023-05-09T14:14:21;11.63;;;10.52;;
52674;SDS011;38569;52.722;6.440;2023-05-09T14:16:50;13.75;;;12.35;;
52674;SDS011;38569;52.722;6.440;2023-05-09T14:19:16;11.70;;;10.55;;
52674;SDS011;38569;52.722;6.440;2023-05-09T14:21:42;14.82;;;11.70;;
52674;SDS011;38569;52.722;6.440;2023-05-09T14:24:08;12.15;;;10.93;;